sensor_id;sensor_type;location;lat;lon;timestamp;pressure;altitude;pressure_sealevel;temperature;humidity
28267;BME280;15525;45.568;5.448;2023-05-11T00:00:38;98043.84;;;15.85;57.06
28267;BME280;15525;45.568;5.448;2023-05-11T00:03:03;98050.44;;;15.79;56.96
28267;BME280;15525;45.568;5.448;2023-05-11T00:05:29;98044.44;;;15.82;57.26
28267;BME280;15525;45.568;5.448;2023-05-11T00:07:54;98031.84;;;15.78;57.12
28267;BME280;15525;45.568;5.448;2023-05-11T00:10:20;98042.22;;;15.84;56.81
28267;BME280;15525;45.568;5.448;2023-05-11T00:12:45;98037.69;;;15.71;57.26
28267;BME280;15525;45.568;5.448;2023-05-11T00:15:11;98034.16;;;15.57;57.32
28267;BME280;15525;45.568;5.448;2023-05-11T00:17:37;98036.47;;;15.64;57.33
28267;BME280;15525;45.568;5.448;2023-05-11T00:20:02;98043.16;;;15.66;57.36
28267;BME280;15525;45.568;5.448;2023-05-11T00:22:28;98056.53;;;15.85;57.50
28267;BME280;15525;45.568;5.448;2023-05-11T00:24:54;98037.09;;;15.61;57.96
28267;BME280;15525;45.568;5.448;2023-05-11T00:27:19;98044.47;;;15.55;57.63
28267;BME280;15525;45.568;5.448;2023-05-11T00:29:45;98070.75;;;15.63;58.00
28267;BME280;15525;45.568;5.448;2023-05-11T00:32:10;98040.28;;;15.49;58.16
28267;BME280;15525;45.568;5.448;2023-05-11T00:34:36;98043.47;;;15.65;58.00
28267;BME280;15525;45.568;5.448;2023-05-11T00:37:01;98028.88;;;15.52;57.74
28267;BME280;15525;45.568;5.448;2023-05-11T00:39:27;98027.00;;;15.39;58.16
28267;BME280;15525;45.568;5.448;2023-05-11T00:41:52;98027.31;;;15.38;58.66
28267;BME280;15525;45.568;5.448;2023-05-11T00:44:18;98006.59;;;15.20;58.81
28267;BME280;15525;45.568;5.448;2023-05-11T00:46:43;98041.41;;;15.48;58.20
28267;BME280;15525;45.568;5.448;2023-05-11T00:49:09;98008.78;;;15.31;58.21
28267;BME280;15525;45.568;5.448;2023-05-11T00:51:35;98004.28;;;15.27;59.00
28267;BME280;15525;45.568;5.448;2023-05-11T00:54:00;98009.00;;;15.35;58.88
28267;BME280;15525;45.568;5.448;2023-05-11T00:56:26;98037.38;;;15.59;58.69
28267;BME280;15525;45.568;5.448;2023-05-11T00:58:52;98010.00;;;15.52;58.27
28267;BME280;15525;45.568;5.448;2023-05-11T01:01:17;98024.41;;;15.48;57.94
28267;BME280;15525;45.568;5.448;2023-05-11T01:03:43;98031.38;;;15.49;58.25
28267;BME280;15525;45.568;5.448;2023-05-11T01:12:39;98002.03;;;15.34;58.62
28267;BME280;15525;45.568;5.448;2023-05-11T01:15:19;97994.00;;;15.29;58.69
28267;BME280;15525;45.568;5.448;2023-05-11T01:17:54;98004.91;;;15.37;58.49
28267;BME280;15525;45.568;5.448;2023-05-11T01:20:24;98026.56;;;15.46;58.00
28267;BME280;15525;45.568;5.448;2023-05-11T01:29:06;98001.97;;;15.20;58.98
28267;BME280;15525;45.568;5.448;2023-05-11T01:31:37;98016.19;;;15.26;58.39
28267;BME280;15525;45.568;5.448;2023-05-11T01:34:09;98009.00;;;15.21;59.19
28267;BME280;15525;45.568;5.448;2023-05-11T01:36:42;98001.50;;;15.05;59.42
28267;BME280;15525;45.568;5.448;2023-05-11T01:39:10;98024.66;;;15.19;59.17
28267;BME280;15525;45.568;5.448;2023-05-11T01:41:38;98020.75;;;15.12;58.89
28267;BME280;15525;45.568;5.448;2023-05-11T01:44:08;98009.56;;;14.91;59.39
28267;BME280;15525;45.568;5.448;2023-05-11T01:46:34;98005.56;;;15.02;59.24
28267;BME280;15525;45.568;5.448;2023-05-11T01:49:02;98019.84;;;15.03;59.40
28267;BME280;15525;45.568;5.448;2023-05-11T01:51:35;98025.88;;;15.13;59.42
28267;BME280;15525;45.568;5.448;2023-05-11T01:54:04;98024.94;;;15.04;59.39
28267;BME280;15525;45.568;5.448;2023-05-11T01:56:31;98002.88;;;15.02;59.08
28267;BME280;15525;45.568;5.448;2023-05-11T01:58:58;97999.38;;;15.02;59.34
28267;BME280;15525;45.568;5.448;2023-05-11T02:01:25;97985.19;;;14.96;58.85
28267;BME280;15525;45.568;5.448;2023-05-11T02:03:53;98005.78;;;15.06;59.04
28267;BME280;15525;45.568;5.448;2023-05-11T02:06:21;98009.66;;;15.00;59.54
28267;BME280;15525;45.568;5.448;2023-05-11T02:08:49;98010.38;;;15.05;59.55
28267;BME280;15525;45.568;5.448;2023-05-11T02:11:15;98029.28;;;15.19;59.27
28267;BME280;15525;45.568;5.448;2023-05-11T02:13:44;98004.19;;;15.05;59.43
28267;BME280;15525;45.568;5.448;2023-05-11T02:16:11;98028.03;;;15.11;59.51
28267;BME280;15525;45.568;5.448;2023-05-11T02:18:39;98015.75;;;15.05;59.45
28267;BME280;15525;45.568;5.448;2023-05-11T02:21:08;97985.97;;;14.83;59.71
28267;BME280;15525;45.568;5.448;2023-05-11T02:23:35;98003.06;;;14.92;59.77
28267;BME280;15525;45.568;5.448;2023-05-11T02:26:03;98025.34;;;14.98;60.03
28267;BME280;15525;45.568;5.448;2023-05-11T02:28:29;98018.34;;;14.97;60.12
28267;BME280;15525;45.568;5.448;2023-05-11T02:30:59;98029.34;;;15.14;59.85
28267;BME280;15525;45.568;5.448;2023-05-11T02:33:34;97999.50;;;14.97;60.07
28267;BME280;15525;45.568;5.448;2023-05-11T02:36:01;98029.53;;;15.04;60.19
28267;BME280;15525;45.568;5.448;2023-05-11T02:38:37;98011.16;;;14.92;60.29
28267;BME280;15525;45.568;5.448;2023-05-11T02:41:06;97991.06;;;14.85;60.45
28267;BME280;15525;45.568;5.448;2023-05-11T02:43:35;98014.47;;;15.03;59.78
28267;BME280;15525;45.568;5.448;2023-05-11T02:46:05;97993.38;;;14.91;59.77
28267;BME280;15525;45.568;5.448;2023-05-11T02:48:44;97987.50;;;15.03;59.78
28267;BME280;15525;45.568;5.448;2023-05-11T02:51:12;97987.31;;;14.99;59.35
28267;BME280;15525;45.568;5.448;2023-05-11T02:53:40;97981.22;;;14.94;60.12
28267;BME280;15525;45.568;5.448;2023-05-11T02:56:07;97982.41;;;14.88;59.94
28267;BME280;15525;45.568;5.448;2023-05-11T02:58:33;97977.69;;;14.80;59.86
28267;BME280;15525;45.568;5.448;2023-05-11T03:00:58;98006.38;;;14.89;60.27
28267;BME280;15525;45.568;5.448;2023-05-11T03:03:25;97965.53;;;14.69;59.99
28267;BME280;15525;45.568;5.448;2023-05-11T03:05:51;97966.72;;;14.76;59.94
28267;BME280;15525;45.568;5.448;2023-05-11T03:08:16;97982.50;;;14.83;59.83
28267;BME280;15525;45.568;5.448;2023-05-11T03:10:42;98005.97;;;14.96;60.16
28267;BME280;15525;45.568;5.448;2023-05-11T03:13:08;97977.78;;;14.88;59.83
28267;BME280;15525;45.568;5.448;2023-05-11T03:15:34;97963.84;;;14.86;60.00
28267;BME280;15525;45.568;5.448;2023-05-11T03:18:02;97964.22;;;14.93;59.45
28267;BME280;15525;45.568;5.448;2023-05-11T03:20:28;97955.66;;;14.91;59.63
28267;BME280;15525;45.568;5.448;2023-05-11T03:22:55;97941.84;;;14.79;59.56
28267;BME280;15525;45.568;5.448;2023-05-11T03:25:22;97979.31;;;15.08;59.57
28267;BME280;15525;45.568;5.448;2023-05-11T03:27:49;97955.66;;;14.78;60.00
28267;BME280;15525;45.568;5.448;2023-05-11T03:30:16;97952.06;;;14.82;60.13
28267;BME280;15525;45.568;5.448;2023-05-11T03:32:41;97942.06;;;14.69;60.31
28267;BME280;15525;45.568;5.448;2023-05-11T03:35:07;97976.09;;;14.92;60.36
28267;BME280;15525;45.568;5.448;2023-05-11T03:37:35;97952.81;;;14.69;60.34
28267;BME280;15525;45.568;5.448;2023-05-11T03:40:02;97955.22;;;14.71;60.00
28267;BME280;15525;45.568;5.448;2023-05-11T03:42:29;97955.56;;;14.83;59.95
28267;BME280;15525;45.568;5.448;2023-05-11T03:44:57;97942.28;;;14.86;59.64
28267;BME280;15525;45.568;5.448;2023-05-11T03:47:25;97969.13;;;15.18;59.52
28267;BME280;15525;45.568;5.448;2023-05-11T03:49:53;97926.31;;;15.03;59.40
28267;BME280;15525;45.568;5.448;2023-05-11T03:52:20;97952.06;;;15.09;59.73
28267;BME280;15525;45.568;5.448;2023-05-11T03:54:46;97935.00;;;15.00;59.53
28267;BME280;15525;45.568;5.448;2023-05-11T03:57:15;97938.47;;;14.87;60.11
28267;BME280;15525;45.568;5.448;2023-05-11T03:59:41;97946.66;;;14.82;59.69
28267;BME280;15525;45.568;5.448;2023-05-11T04:02:07;97944.97;;;14.86;59.81
28267;BME280;15525;45.568;5.448;2023-05-11T04:04:33;97946.88;;;14.99;59.35
28267;BME280;15525;45.568;5.448;2023-05-11T04:06:59;97941.78;;;14.98;59.38
28267;BME280;15525;45.568;5.448;2023-05-11T04:09:25;97949.25;;;15.14;59.03
28267;BME280;15525;45.568;5.448;2023-05-11T04:11:50;97949.88;;;15.25;58.87
28267;BME280;15525;45.568;5.448;2023-05-11T04:14:16;97950.44;;;15.22;59.28
28267;BME280;15525;45.568;5.448;2023-05-11T04:16:43;97954.25;;;14.94;60.14
28267;BME280;15525;45.568;5.448;2023-05-11T04:19:08;97959.44;;;14.90;60.12
28267;BME280;15525;45.568;5.448;2023-05-11T04:21:34;97938.56;;;14.82;60.09
28267;BME280;15525;45.568;5.448;2023-05-11T04:24:00;97956.03;;;14.85;60.35
28267;BME280;15525;45.568;5.448;2023-05-11T04:26:25;97954.84;;;14.77;60.04
28267;BME280;15525;45.568;5.448;2023-05-11T04:28:51;97946.28;;;14.75;60.29
28267;BME280;15525;45.568;5.448;2023-05-11T04:31:16;97928.00;;;14.72;60.22
28267;BME280;15525;45.568;5.448;2023-05-11T04:33:42;97958.53;;;14.95;59.96
28267;BME280;15525;45.568;5.448;2023-05-11T04:36:07;97943.47;;;14.80;59.78
28267;BME280;15525;45.568;5.448;2023-05-11T04:38:33;97959.84;;;14.97;60.02
28267;BME280;15525;45.568;5.448;2023-05-11T04:41:06;97939.91;;;14.98;60.02
28267;BME280;15525;45.568;5.448;2023-05-11T04:43:32;97953.06;;;15.13;59.67
28267;BME280;15525;45.568;5.448;2023-05-11T04:45:57;97942.06;;;14.96;59.74
28267;BME280;15525;45.568;5.448;2023-05-11T04:48:26;97935.28;;;14.85;60.15
28267;BME280;15525;45.568;5.448;2023-05-11T04:50:55;97967.13;;;15.10;60.13
28267;BME280;15525;45.568;5.448;2023-05-11T04:53:20;97947.59;;;15.05;59.85
28267;BME280;15525;45.568;5.448;2023-05-11T04:55:46;97948.25;;;15.10;59.67
28267;BME280;15525;45.568;5.448;2023-05-11T04:58:11;97938.09;;;15.07;59.89
28267;BME280;15525;45.568;5.448;2023-05-11T05:00:37;97939.06;;;15.11;59.50
28267;BME280;15525;45.568;5.448;2023-05-11T05:03:02;97929.38;;;15.10;59.62
28267;BME280;15525;45.568;5.448;2023-05-11T05:05:28;97951.34;;;15.31;59.02
28267;BME280;15525;45.568;5.448;2023-05-11T05:07:53;97923.91;;;15.15;59.51
28267;BME280;15525;45.568;5.448;2023-05-11T05:10:19;97955.25;;;15.38;59.48
28267;BME280;15525;45.568;5.448;2023-05-11T05:12:44;97959.34;;;15.49;59.19
28267;BME280;15525;45.568;5.448;2023-05-11T05:15:10;97964.41;;;15.64;59.10
28267;BME280;15525;45.568;5.448;2023-05-11T05:17:35;97953.41;;;15.74;58.41
28267;BME280;15525;45.568;5.448;2023-05-11T05:20:01;97945.69;;;15.81;58.02
28267;BME280;15525;45.568;5.448;2023-05-11T05:22:28;97956.00;;;16.01;57.79
28267;BME280;15525;45.568;5.448;2023-05-11T05:24:54;97957.13;;;16.00;57.84
28267;BME280;15525;45.568;5.448;2023-05-11T05:27:19;97968.59;;;16.28;57.92
28267;BME280;15525;45.568;5.448;2023-05-11T05:29:45;97973.56;;;16.34;57.31
28267;BME280;15525;45.568;5.448;2023-05-11T05:32:10;97929.63;;;16.20;57.28
28267;BME280;15525;45.568;5.448;2023-05-11T05:34:36;97955.22;;;16.23;57.36
28267;BME280;15525;45.568;5.448;2023-05-11T05:37:01;97976.38;;;16.29;57.85
28267;BME280;15525;45.568;5.448;2023-05-11T05:39:27;97947.91;;;16.23;57.61
28267;BME280;15525;45.568;5.448;2023-05-11T05:41:52;97941.53;;;15.97;58.25
28267;BME280;15525;45.568;5.448;2023-05-11T05:44:17;97959.56;;;16.10;57.97
28267;BME280;15525;45.568;5.448;2023-05-11T05:46:43;97961.28;;;16.06;57.85
28267;BME280;15525;45.568;5.448;2023-05-11T05:49:08;97960.09;;;15.77;58.16
28267;BME280;15525;45.568;5.448;2023-05-11T05:51:34;97961.13;;;15.89;58.53
28267;BME280;15525;45.568;5.448;2023-05-11T05:53:59;97963.66;;;15.86;58.65
28267;BME280;15525;45.568;5.448;2023-05-11T05:56:25;97936.63;;;15.99;57.86
28267;BME280;15525;45.568;5.448;2023-05-11T05:58:51;97951.47;;;16.10;57.85
28267;BME280;15525;45.568;5.448;2023-05-11T06:01:16;97955.28;;;16.31;57.63
28267;BME280;15525;45.568;5.448;2023-05-11T06:03:42;97948.72;;;16.46;57.56
28267;BME280;15525;45.568;5.448;2023-05-11T06:06:09;97939.31;;;16.21;57.49
28267;BME280;15525;45.568;5.448;2023-05-11T06:08:34;97946.56;;;15.90;58.24
28267;BME280;15525;45.568;5.448;2023-05-11T06:10:59;97958.72;;;16.01;58.30
28267;BME280;15525;45.568;5.448;2023-05-11T06:13:25;97962.97;;;16.38;57.92
28267;BME280;15525;45.568;5.448;2023-05-11T06:15:50;97946.75;;;15.94;58.30
28267;BME280;15525;45.568;5.448;2023-05-11T06:18:15;97954.41;;;16.00;58.52
28267;BME280;15525;45.568;5.448;2023-05-11T06:20:41;97941.72;;;16.23;57.82
28267;BME280;15525;45.568;5.448;2023-05-11T06:23:07;97921.91;;;16.05;58.02
28267;BME280;15525;45.568;5.448;2023-05-11T06:25:33;97939.31;;;16.43;57.85
28267;BME280;15525;45.568;5.448;2023-05-11T06:27:59;97931.22;;;16.74;56.43
28267;BME280;15525;45.568;5.448;2023-05-11T06:30:25;97939.31;;;17.04;55.90
28267;BME280;15525;45.568;5.448;2023-05-11T06:32:50;97939.91;;;16.93;56.56
28267;BME280;15525;45.568;5.448;2023-05-11T06:35:16;97938.22;;;17.14;56.28
28267;BME280;15525;45.568;5.448;2023-05-11T06:37:41;97935.16;;;17.46;55.24
28267;BME280;15525;45.568;5.448;2023-05-11T06:40:07;97925.38;;;17.19;55.62
28267;BME280;15525;45.568;5.448;2023-05-11T06:42:32;97935.59;;;16.92;56.46
28267;BME280;15525;45.568;5.448;2023-05-11T06:44:58;97933.41;;;17.02;56.39
28267;BME280;15525;45.568;5.448;2023-05-11T06:47:23;97946.72;;;17.29;56.04
28267;BME280;15525;45.568;5.448;2023-05-11T06:49:49;97935.56;;;17.22;55.96
28267;BME280;15525;45.568;5.448;2023-05-11T06:52:14;97939.78;;;17.06;56.05
28267;BME280;15525;45.568;5.448;2023-05-11T06:54:40;97914.94;;;16.96;55.82
28267;BME280;15525;45.568;5.448;2023-05-11T06:57:05;97933.72;;;17.01;56.37
28267;BME280;15525;45.568;5.448;2023-05-11T06:59:31;97917.72;;;17.13;55.68
28267;BME280;15525;45.568;5.448;2023-05-11T07:01:56;97960.34;;;16.77;56.41
28267;BME280;15525;45.568;5.448;2023-05-11T07:04:22;97939.50;;;17.08;55.92
28267;BME280;15525;45.568;5.448;2023-05-11T07:06:47;97926.00;;;16.77;56.27
28267;BME280;15525;45.568;5.448;2023-05-11T07:09:13;97945.13;;;16.89;56.21
28267;BME280;15525;45.568;5.448;2023-05-11T07:11:38;97938.44;;;16.87;56.52
28267;BME280;15525;45.568;5.448;2023-05-11T07:14:05;97938.72;;;16.77;56.20
28267;BME280;15525;45.568;5.448;2023-05-11T07:16:32;97918.69;;;16.47;56.93
28267;BME280;15525;45.568;5.448;2023-05-11T07:19:02;97928.09;;;16.50;57.04
28267;BME280;15525;45.568;5.448;2023-05-11T07:21:28;97942.44;;;16.89;56.78
28267;BME280;15525;45.568;5.448;2023-05-11T07:23:53;97933.56;;;17.45;54.97
28267;BME280;15525;45.568;5.448;2023-05-11T07:26:18;97932.00;;;17.78;53.82
28267;BME280;15525;45.568;5.448;2023-05-11T07:28:44;97922.56;;;18.52;52.55
28267;BME280;15525;45.568;5.448;2023-05-11T07:31:09;97937.53;;;18.66;52.10
28267;BME280;15525;45.568;5.448;2023-05-11T07:33:36;97953.41;;;18.93;51.79
28267;BME280;15525;45.568;5.448;2023-05-11T07:36:02;97920.81;;;18.56;52.28
28267;BME280;15525;45.568;5.448;2023-05-11T07:38:27;97939.34;;;17.94;53.76
28267;BME280;15525;45.568;5.448;2023-05-11T07:40:53;97914.66;;;17.87;54.09
28267;BME280;15525;45.568;5.448;2023-05-11T07:43:18;97936.31;;;17.87;53.75
28267;BME280;15525;45.568;5.448;2023-05-11T07:45:44;97934.06;;;18.49;52.58
28267;BME280;15525;45.568;5.448;2023-05-11T07:48:09;97954.16;;;18.39;52.90
28267;BME280;15525;45.568;5.448;2023-05-11T07:50:35;97927.88;;;18.14;53.19
28267;BME280;15525;45.568;5.448;2023-05-11T07:53:00;97930.34;;;18.70;52.46
28267;BME280;15525;45.568;5.448;2023-05-11T07:55:26;97936.66;;;19.29;50.68
28267;BME280;15525;45.568;5.448;2023-05-11T07:57:54;97942.63;;;19.72;49.77
28267;BME280;15525;45.568;5.448;2023-05-11T08:00:20;97920.56;;;20.47;48.21
28267;BME280;15525;45.568;5.448;2023-05-11T08:02:46;97948.47;;;20.56;48.43
28267;BME280;15525;45.568;5.448;2023-05-11T08:05:11;97931.00;;;19.42;49.87
28267;BME280;15525;45.568;5.448;2023-05-11T08:07:37;97935.47;;;18.55;51.89
28267;BME280;15525;45.568;5.448;2023-05-11T08:10:03;97919.25;;;18.38;51.92
28267;BME280;15525;45.568;5.448;2023-05-11T08:12:29;97911.25;;;18.50;51.78
28267;BME280;15525;45.568;5.448;2023-05-11T08:14:54;97916.06;;;18.90;50.77
28267;BME280;15525;45.568;5.448;2023-05-11T08:17:20;97921.19;;;19.21;50.36
28267;BME280;15525;45.568;5.448;2023-05-11T08:19:45;97903.41;;;19.81;49.28
28267;BME280;15525;45.568;5.448;2023-05-11T08:22:11;97897.22;;;20.13;48.87
28267;BME280;15525;45.568;5.448;2023-05-11T08:24:36;97918.59;;;20.68;47.67
28267;BME280;15525;45.568;5.448;2023-05-11T08:27:02;97903.34;;;20.10;48.12
28267;BME280;15525;45.568;5.448;2023-05-11T08:29:27;97908.25;;;19.55;49.49
28267;BME280;15525;45.568;5.448;2023-05-11T08:31:53;97905.59;;;19.09;50.72
28267;BME280;15525;45.568;5.448;2023-05-11T08:34:18;97908.47;;;18.75;51.31
28267;BME280;15525;45.568;5.448;2023-05-11T08:36:44;97930.94;;;19.13;50.61
28267;BME280;15525;45.568;5.448;2023-05-11T08:39:10;97903.63;;;19.27;50.05
28267;BME280;15525;45.568;5.448;2023-05-11T08:41:35;97900.16;;;18.80;50.23
28267;BME280;15525;45.568;5.448;2023-05-11T08:44:01;97918.50;;;19.12;50.09
28267;BME280;15525;45.568;5.448;2023-05-11T08:46:34;97913.06;;;18.83;50.19
28267;BME280;15525;45.568;5.448;2023-05-11T08:49:00;97907.91;;;18.90;50.23
28267;BME280;15525;45.568;5.448;2023-05-11T08:51:26;97912.75;;;19.14;49.66
28267;BME280;15525;45.568;5.448;2023-05-11T08:53:53;97875.50;;;19.72;48.31
28267;BME280;15525;45.568;5.448;2023-05-11T08:56:19;97884.00;;;20.56;46.80
28267;BME280;15525;45.568;5.448;2023-05-11T08:58:46;97892.41;;;21.72;44.98
28267;BME280;15525;45.568;5.448;2023-05-11T09:01:15;97871.44;;;22.43;43.35
28267;BME280;15525;45.568;5.448;2023-05-11T09:03:42;97880.31;;;23.14;42.39
28267;BME280;15525;45.568;5.448;2023-05-11T09:06:08;97889.63;;;22.39;42.71
28267;BME280;15525;45.568;5.448;2023-05-11T09:08:36;97887.25;;;20.95;45.03
28267;BME280;15525;45.568;5.448;2023-05-11T09:11:02;97884.28;;;21.36;44.10
28267;BME280;15525;45.568;5.448;2023-05-11T09:13:29;97897.00;;;20.96;44.03
28267;BME280;15525;45.568;5.448;2023-05-11T09:15:54;97895.13;;;20.63;44.93
28267;BME280;15525;45.568;5.448;2023-05-11T09:18:20;97869.50;;;20.52;44.73
28267;BME280;15525;45.568;5.448;2023-05-11T09:20:46;97862.28;;;20.24;45.23
28267;BME280;15525;45.568;5.448;2023-05-11T09:23:18;97888.75;;;20.59;44.12
28267;BME280;15525;45.568;5.448;2023-05-11T09:25:48;97877.22;;;20.74;44.77
28267;BME280;15525;45.568;5.448;2023-05-11T09:28:13;97886.81;;;21.17;44.32
28267;BME280;15525;45.568;5.448;2023-05-11T09:30:41;97865.09;;;20.27;45.22
28267;BME280;15525;45.568;5.448;2023-05-11T09:33:06;97863.22;;;20.07;45.75
28267;BME280;15525;45.568;5.448;2023-05-11T09:35:33;97886.09;;;20.83;44.83
28267;BME280;15525;45.568;5.448;2023-05-11T09:40:36;97858.69;;;20.44;44.66
28267;BME280;15525;45.568;5.448;2023-05-11T09:43:03;97848.50;;;20.53;45.08
28267;BME280;15525;45.568;5.448;2023-05-11T09:45:44;97878.41;;;20.41;45.50
28267;BME280;15525;45.568;5.448;2023-05-11T09:50:45;97865.91;;;20.28;45.93
28267;BME280;15525;45.568;5.448;2023-05-11T09:53:10;97857.41;;;19.76;46.30
28267;BME280;15525;45.568;5.448;2023-05-11T09:55:36;97881.13;;;20.08;46.45
28267;BME280;15525;45.568;5.448;2023-05-11T09:58:02;97863.38;;;19.90;46.86
28267;BME280;15525;45.568;5.448;2023-05-11T10:00:29;97856.66;;;20.41;45.85
28267;BME280;15525;45.568;5.448;2023-05-11T10:05:28;97872.16;;;20.40;46.06
28267;BME280;15525;45.568;5.448;2023-05-11T10:07:59;97857.03;;;20.51;45.83
28267;BME280;15525;45.568;5.448;2023-05-11T10:10:30;97856.09;;;20.47;45.28
28267;BME280;15525;45.568;5.448;2023-05-11T10:13:00;97840.13;;;20.58;44.55
28267;BME280;15525;45.568;5.448;2023-05-11T10:15:28;97863.50;;;20.71;44.73
28267;BME280;15525;45.568;5.448;2023-05-11T10:17:56;97861.47;;;20.68;44.41
28267;BME280;15525;45.568;5.448;2023-05-11T10:20:23;97860.47;;;20.84;44.56
28267;BME280;15525;45.568;5.448;2023-05-11T10:22:53;97839.31;;;20.33;44.46
28267;BME280;15525;45.568;5.448;2023-05-11T10:25:24;97851.78;;;20.46;44.98
28267;BME280;15525;45.568;5.448;2023-05-11T10:27:50;97855.28;;;21.04;44.53
28267;BME280;15525;45.568;5.448;2023-05-11T10:30:17;97843.44;;;20.63;45.07
28267;BME280;15525;45.568;5.448;2023-05-11T10:32:45;97865.38;;;20.91;45.08
28267;BME280;15525;45.568;5.448;2023-05-11T10:35:11;97857.63;;;21.17;44.83
28267;BME280;15525;45.568;5.448;2023-05-11T10:37:39;97835.31;;;21.00;45.20
28267;BME280;15525;45.568;5.448;2023-05-11T10:40:05;97835.06;;;20.80;45.41
28267;BME280;15525;45.568;5.448;2023-05-11T10:42:59;97844.47;;;21.07;44.96
28267;BME280;15525;45.568;5.448;2023-05-11T10:45:28;97856.84;;;21.17;45.36
28267;BME280;15525;45.568;5.448;2023-05-11T10:50:46;97846.63;;;21.14;46.56
28267;BME280;15525;45.568;5.448;2023-05-11T10:53:22;97841.13;;;21.50;46.45
28267;BME280;15525;45.568;5.448;2023-05-11T10:56:29;97838.63;;;21.96;45.71
28267;BME280;15525;45.568;5.448;2023-05-11T10:59:08;97829.47;;;22.04;45.63
28267;BME280;15525;45.568;5.448;2023-05-11T11:01:38;97818.72;;;22.39;44.93
28267;BME280;15525;45.568;5.448;2023-05-11T11:04:06;97822.47;;;22.46;45.35
28267;BME280;15525;45.568;5.448;2023-05-11T11:06:40;97826.19;;;22.26;46.28
28267;BME280;15525;45.568;5.448;2023-05-11T11:09:08;97823.16;;;22.16;46.95
28267;BME280;15525;45.568;5.448;2023-05-11T11:11:46;97801.94;;;21.94;47.36
28267;BME280;15525;45.568;5.448;2023-05-11T11:14:16;97804.66;;;21.54;47.67
28267;BME280;15525;45.568;5.448;2023-05-11T11:19:43;97811.66;;;21.28;48.55
28267;BME280;15525;45.568;5.448;2023-05-11T11:22:47;97824.66;;;21.07;49.88
28267;BME280;15525;45.568;5.448;2023-05-11T11:25:51;97819.72;;;20.76;49.08
28267;BME280;15525;45.568;5.448;2023-05-11T11:28:20;97807.00;;;20.20;50.16
28267;BME280;15525;45.568;5.448;2023-05-11T11:30:45;97770.59;;;19.06;50.84
28267;BME280;15525;45.568;5.448;2023-05-11T11:38:18;97816.44;;;19.69;49.17
28267;BME280;15525;45.568;5.448;2023-05-11T11:40:48;97802.50;;;20.03;49.45
28267;BME280;15525;45.568;5.448;2023-05-11T11:43:23;97787.56;;;19.97;51.56
28267;BME280;15525;45.568;5.448;2023-05-11T11:46:00;97798.41;;;19.97;51.24
28267;BME280;15525;45.568;5.448;2023-05-11T11:48:36;97777.13;;;19.87;51.49
28267;BME280;15525;45.568;5.448;2023-05-11T11:51:07;97781.78;;;19.99;50.43
28267;BME280;15525;45.568;5.448;2023-05-11T11:56:05;97791.53;;;19.26;52.41
28267;BME280;15525;45.568;5.448;2023-05-11T12:01:19;97791.50;;;19.06;52.64
28267;BME280;15525;45.568;5.448;2023-05-11T12:03:50;97789.47;;;18.74;52.67
28267;BME280;15525;45.568;5.448;2023-05-11T12:06:19;97765.41;;;18.93;51.97
28267;BME280;15525;45.568;5.448;2023-05-11T12:08:46;97754.25;;;19.35;50.84
28267;BME280;15525;45.568;5.448;2023-05-11T12:11:15;97772.25;;;19.60;50.18
28267;BME280;15525;45.568;5.448;2023-05-11T12:13:42;97768.84;;;19.31;50.50
28267;BME280;15525;45.568;5.448;2023-05-11T12:16:16;97761.47;;;19.52;48.98
28267;BME280;15525;45.568;5.448;2023-05-11T12:18:55;97759.88;;;19.83;49.62
28267;BME280;15525;45.568;5.448;2023-05-11T12:21:24;97765.81;;;19.97;49.33
28267;BME280;15525;45.568;5.448;2023-05-11T12:23:55;97740.00;;;20.03;48.82
28267;BME280;15525;45.568;5.448;2023-05-11T12:26:22;97758.41;;;20.30;48.50
28267;BME280;15525;45.568;5.448;2023-05-11T12:28:49;97749.06;;;20.07;48.66
28267;BME280;15525;45.568;5.448;2023-05-11T12:31:18;97742.09;;;20.18;48.62
28267;BME280;15525;45.568;5.448;2023-05-11T12:33:52;97743.44;;;20.12;48.43
28267;BME280;15525;45.568;5.448;2023-05-11T12:36:18;97747.75;;;20.13;48.49
28267;BME280;15525;45.568;5.448;2023-05-11T12:38:45;97735.09;;;20.29;48.16
28267;BME280;15525;45.568;5.448;2023-05-11T12:41:18;97746.06;;;20.33;50.71
28267;BME280;15525;45.568;5.448;2023-05-11T12:43:47;97743.00;;;20.70;48.69
28267;BME280;15525;45.568;5.448;2023-05-11T12:46:13;97747.31;;;20.96;48.63
28267;BME280;15525;45.568;5.448;2023-05-11T12:48:38;97720.31;;;21.03;48.36
28267;BME280;15525;45.568;5.448;2023-05-11T12:51:04;97734.22;;;21.53;47.99
28267;BME280;15525;45.568;5.448;2023-05-11T12:53:34;97742.13;;;21.58;47.47
28267;BME280;15525;45.568;5.448;2023-05-11T12:56:00;97722.31;;;21.73;47.75
28267;BME280;15525;45.568;5.448;2023-05-11T12:58:37;97725.44;;;21.32;46.90
28267;BME280;15525;45.568;5.448;2023-05-11T13:01:04;97709.91;;;20.80;48.98
28267;BME280;15525;45.568;5.448;2023-05-11T13:03:32;97713.56;;;20.60;48.07
28267;BME280;15525;45.568;5.448;2023-05-11T13:06:12;97718.69;;;21.14;47.11
28267;BME280;15525;45.568;5.448;2023-05-11T13:08:39;97708.69;;;21.18;46.67
28267;BME280;15525;45.568;5.448;2023-05-11T13:13:51;97726.88;;;22.58;44.12
28267;BME280;15525;45.568;5.448;2023-05-11T13:16:30;97715.44;;;22.06;43.58
28267;BME280;15525;45.568;5.448;2023-05-11T13:18:58;97693.66;;;22.72;43.54
28267;BME280;15525;45.568;5.448;2023-05-11T13:21:23;97702.00;;;23.32;42.17
28267;BME280;15525;45.568;5.448;2023-05-11T13:23:50;97728.13;;;23.14;42.28
28267;BME280;15525;45.568;5.448;2023-05-11T13:26:26;97730.63;;;22.85;41.36
28267;BME280;15525;45.568;5.448;2023-05-11T13:28:52;97730.84;;;24.09;40.74
28267;BME280;15525;45.568;5.448;2023-05-11T13:31:17;97739.03;;;23.68;40.82
28267;BME280;15525;45.568;5.448;2023-05-11T13:33:45;97710.44;;;23.08;42.52
28267;BME280;15525;45.568;5.448;2023-05-11T13:36:10;97727.06;;;22.50;42.70
28267;BME280;15525;45.568;5.448;2023-05-11T13:38:36;97731.31;;;21.34;45.05
28267;BME280;15525;45.568;5.448;2023-05-11T13:41:01;97718.66;;;21.26;45.88